createdAt,value
2023-10-23T00:00:51.384Z,7.90
2023-10-23T00:01:54.042Z,7.90
2023-10-23T00:02:56.396Z,7.90
2023-10-23T00:03:58.860Z,7.90
2023-10-23T00:05:01.527Z,7.90
2023-10-23T00:06:04.424Z,7.90
2023-10-23T00:07:06.670Z,7.90
2023-10-23T00:08:09.052Z,7.90
2023-10-23T00:09:11.245Z,7.90
2023-10-23T00:10:13.566Z,7.90
2023-10-23T00:11:23.512Z,8.00
2023-10-23T00:12:25.841Z,8.00
2023-10-23T00:13:28.182Z,8.00
2023-10-23T00:14:31.823Z,8.00
2023-10-23T00:15:35.615Z,8.00
2023-10-23T00:16:37.899Z,7.90
2023-10-23T00:17:40.192Z,7.90
2023-10-23T00:18:42.858Z,8.00
2023-10-23T00:19:45.069Z,7.90
2023-10-23T00:20:47.323Z,7.90
2023-10-23T00:21:49.684Z,8.00
2023-10-23T00:22:51.866Z,8.00
2023-10-23T00:23:54.273Z,8.00
2023-10-23T00:24:56.540Z,8.00
2023-10-23T00:25:58.852Z,8.00
2023-10-23T00:27:01.184Z,8.00
2023-10-23T00:28:03.551Z,7.90
2023-10-23T00:29:05.918Z,8.00
2023-10-23T00:30:10.192Z,8.00
2023-10-23T00:31:13.021Z,8.00
2023-10-23T00:32:15.319Z,7.90
2023-10-23T00:33:17.988Z,8.00
2023-10-23T00:34:20.450Z,8.00
2023-10-23T00:35:23.063Z,8.00
2023-10-23T00:36:25.362Z,8.00
2023-10-23T00:37:27.596Z,7.90
2023-10-23T00:38:30.079Z,8.00
2023-10-23T00:39:32.354Z,7.90
2023-10-23T00:40:35.700Z,7.90
2023-10-23T00:41:40.921Z,8.00
2023-10-23T00:42:43.253Z,8.00
2023-10-23T00:43:45.573Z,7.90
2023-10-23T00:44:47.759Z,8.00
2023-10-23T00:45:55.815Z,8.00
2023-10-23T00:46:58.374Z,8.00
2023-10-23T00:48:00.665Z,7.90
2023-10-23T00:49:03.741Z,8.00
2023-10-23T00:50:06.553Z,7.90
2023-10-23T00:51:11.789Z,7.90
2023-10-23T00:52:14.327Z,7.90
2023-10-23T00:53:17.589Z,7.90
2023-10-23T00:54:21.081Z,7.90
2023-10-23T00:55:23.657Z,7.90
2023-10-23T00:56:26.160Z,7.90
2023-10-23T00:57:28.582Z,7.90
2023-10-23T00:58:32.534Z,7.90
2023-10-23T00:59:35.468Z,7.90
2023-10-23T01:00:38.640Z,7.90
2023-10-23T01:01:46.636Z,7.90
2023-10-23T01:02:49.058Z,7.90
2023-10-23T01:03:51.368Z,7.90
2023-10-23T01:04:54.529Z,7.90
2023-10-23T01:05:57.161Z,7.90
2023-10-23T01:06:59.440Z,7.90
2023-10-23T01:08:01.727Z,7.90
2023-10-23T01:09:04.442Z,7.90
2023-10-23T01:10:07.617Z,7.90
2023-10-23T01:11:10.090Z,7.90
2023-10-23T01:12:12.404Z,7.90
2023-10-23T01:13:15.347Z,7.90
2023-10-23T01:14:17.619Z,7.90
2023-10-23T01:15:19.989Z,7.80
2023-10-23T01:16:22.534Z,7.90
2023-10-23T01:17:26.249Z,7.80
2023-10-23T01:18:28.593Z,7.90
2023-10-23T01:19:30.863Z,7.80
2023-10-23T01:20:33.789Z,7.80
2023-10-23T01:21:36.154Z,7.80
2023-10-23T01:22:38.384Z,7.90
2023-10-23T01:23:44.317Z,7.90
2023-10-23T01:24:49.304Z,7.90
2023-10-23T01:25:52.952Z,7.90
2023-10-23T01:26:56.588Z,7.90
2023-10-23T01:27:58.835Z,7.90
2023-10-23T01:29:01.154Z,7.90
2023-10-23T01:30:03.630Z,7.90
2023-10-23T01:31:06.069Z,7.90
2023-10-23T01:32:08.388Z,7.90
2023-10-23T01:33:10.657Z,7.90
2023-10-23T01:34:13.070Z,7.90
2023-10-23T01:35:15.567Z,7.90
2023-10-23T01:36:17.865Z,7.90
2023-10-23T01:37:20.093Z,7.90
2023-10-23T01:38:22.565Z,7.90
2023-10-23T01:39:25.264Z,7.90
2023-10-23T01:40:27.472Z,7.90
2023-10-23T01:41:31.298Z,7.90
2023-10-23T01:42:33.595Z,7.90
2023-10-23T01:43:35.972Z,7.90
2023-10-23T01:44:38.345Z,7.80
2023-10-23T01:45:40.828Z,7.80
2023-10-23T01:46:43.082Z,7.80
2023-10-23T01:47:45.491Z,7.90
2023-10-23T01:48:47.850Z,7.90
2023-10-23T01:49:50.561Z,7.90
2023-10-23T01:50:53.579Z,7.90
2023-10-23T01:51:56.313Z,7.90
2023-10-23T01:52:59.018Z,7.90
2023-10-23T01:54:01.288Z,7.90
2023-10-23T01:55:03.805Z,7.80
2023-10-23T01:56:08.517Z,7.90
2023-10-23T01:57:12.498Z,7.90
2023-10-23T01:58:14.709Z,7.90
2023-10-23T01:59:17.093Z,7.80
2023-10-23T02:00:19.629Z,7.90
2023-10-23T02:01:23.519Z,7.80
2023-10-23T02:02:25.927Z,7.90
2023-10-23T02:03:28.762Z,7.80
2023-10-23T02:04:31.724Z,7.90
2023-10-23T02:05:34.033Z,7.80
2023-10-23T02:06:36.305Z,7.90
2023-10-23T02:07:38.522Z,7.90
2023-10-23T02:08:40.711Z,7.90
2023-10-23T02:09:42.904Z,7.90
2023-10-23T02:10:45.978Z,7.90
2023-10-23T02:11:48.611Z,7.90
2023-10-23T02:12:52.387Z,7.90
2023-10-23T02:13:54.688Z,7.90
2023-10-23T02:14:57.589Z,7.90
2023-10-23T02:15:59.811Z,7.90
2023-10-23T02:17:02.114Z,7.80
2023-10-23T02:18:04.561Z,7.90
2023-10-23T02:19:06.933Z,7.90
2023-10-23T02:20:10.270Z,7.90
2023-10-23T02:21:12.532Z,7.90
2023-10-23T02:22:14.894Z,7.90
2023-10-23T02:23:19.200Z,7.90
2023-10-23T02:24:21.943Z,7.90
2023-10-23T02:25:24.534Z,7.90
2023-10-23T02:26:27.572Z,7.90
2023-10-23T02:27:30.064Z,7.90
2023-10-23T02:28:33.771Z,7.90
2023-10-23T02:29:36.025Z,7.90
2023-10-23T02:30:38.353Z,7.90
2023-10-23T02:31:40.980Z,7.90
2023-10-23T02:32:43.246Z,7.90
2023-10-23T02:33:45.550Z,7.90
2023-10-23T02:34:49.453Z,7.90
2023-10-23T02:35:51.847Z,7.90
2023-10-23T02:36:54.119Z,7.90
2023-10-23T02:37:56.365Z,7.90
2023-10-23T02:38:59.145Z,8.00
2023-10-23T02:40:01.417Z,8.00
2023-10-23T02:41:03.655Z,7.90
2023-10-23T02:42:06.073Z,8.00
2023-10-23T02:43:08.724Z,8.00
2023-10-23T02:44:12.392Z,7.90
2023-10-23T02:45:14.973Z,7.90
2023-10-23T02:46:17.400Z,7.90
2023-10-23T02:47:19.633Z,7.90
2023-10-23T02:48:21.910Z,7.90
2023-10-23T02:49:24.589Z,7.90
2023-10-23T02:50:26.854Z,7.90
2023-10-23T02:51:29.267Z,7.90
2023-10-23T02:52:31.529Z,7.90
2023-10-23T02:53:33.799Z,7.90
2023-10-23T02:54:36.193Z,7.90
2023-10-23T02:55:41.546Z,7.90
2023-10-23T02:56:44.405Z,7.90
2023-10-23T02:57:46.762Z,7.90
2023-10-23T02:58:49.184Z,7.90
2023-10-23T02:59:53.043Z,7.80
2023-10-23T03:00:55.404Z,7.90
2023-10-23T03:01:57.605Z,7.90
2023-10-23T03:02:59.926Z,7.90
2023-10-23T03:04:02.875Z,7.90
2023-10-23T03:05:05.795Z,7.90
2023-10-23T03:06:08.121Z,7.90
2023-10-23T03:07:10.784Z,7.90
2023-10-23T03:08:13.201Z,7.90
2023-10-23T03:09:15.429Z,7.90
2023-10-23T03:10:17.756Z,7.90
2023-10-23T03:11:19.996Z,7.90
2023-10-23T03:12:22.283Z,7.90
2023-10-23T03:13:24.642Z,7.90
2023-10-23T03:14:26.904Z,7.90
2023-10-23T03:15:30.806Z,8.00
2023-10-23T03:16:33.250Z,8.00
2023-10-23T03:17:35.694Z,8.00
2023-10-23T03:18:38.047Z,8.00
2023-10-23T03:19:40.428Z,8.00
2023-10-23T03:20:42.929Z,8.00
2023-10-23T03:21:45.477Z,8.00
2023-10-23T03:22:47.771Z,8.00
2023-10-23T03:23:50.130Z,8.00
2023-10-23T03:24:52.448Z,8.00
2023-10-23T03:25:54.871Z,8.00
2023-10-23T03:26:57.044Z,8.00
2023-10-23T03:27:59.310Z,8.00
2023-10-23T03:29:01.605Z,8.00
2023-10-23T03:30:05.205Z,8.00
2023-10-23T03:31:08.916Z,8.00
2023-10-23T03:32:11.284Z,8.00
2023-10-23T03:33:13.461Z,8.00
2023-10-23T03:34:17.610Z,8.00
2023-10-23T03:35:20.049Z,8.00
2023-10-23T03:36:22.424Z,8.00
2023-10-23T03:37:25.109Z,8.00
2023-10-23T03:38:27.636Z,8.00
2023-10-23T03:39:29.964Z,8.00
2023-10-23T03:40:32.284Z,8.00
2023-10-23T03:41:34.452Z,8.00
2023-10-23T03:42:36.694Z,8.00
2023-10-23T03:43:40.178Z,8.00
2023-10-23T03:44:42.509Z,8.00
2023-10-23T03:45:45.432Z,8.10
2023-10-23T03:46:49.378Z,8.10
2023-10-23T03:47:51.680Z,8.10
2023-10-23T03:48:55.981Z,8.10
2023-10-23T03:49:58.260Z,8.10
2023-10-23T03:51:01.623Z,8.00
2023-10-23T03:52:04.305Z,8.10
2023-10-23T03:53:06.552Z,8.10
2023-10-23T03:54:08.946Z,8.10
2023-10-23T03:55:11.678Z,8.10
2023-10-23T03:56:13.923Z,8.10
2023-10-23T03:57:16.187Z,8.10
2023-10-23T03:58:18.408Z,8.10
2023-10-23T03:59:20.606Z,8.10
2023-10-23T04:00:22.926Z,8.10
2023-10-23T04:01:25.199Z,8.10
2023-10-23T04:02:29.132Z,8.10
2023-10-23T04:03:31.452Z,8.10
2023-10-23T04:04:33.963Z,8.10
2023-10-23T04:05:41.070Z,8.10
2023-10-23T04:06:43.518Z,8.10
2023-10-23T04:07:45.726Z,8.10
2023-10-23T04:08:48.001Z,8.10
2023-10-23T04:09:50.275Z,8.10
2023-10-23T04:10:52.806Z,8.10
2023-10-23T04:11:56.153Z,8.10
2023-10-23T04:12:59.293Z,8.10
2023-10-23T04:14:01.774Z,8.10
2023-10-23T04:15:04.797Z,8.20
2023-10-23T04:16:07.476Z,8.10
2023-10-23T04:17:09.757Z,8.20
2023-10-23T04:18:13.286Z,8.10
2023-10-23T04:19:15.578Z,8.10
2023-10-23T04:20:18.078Z,8.20
2023-10-23T04:21:22.506Z,8.20
2023-10-23T04:22:24.826Z,8.20
2023-10-23T04:23:27.050Z,8.20
2023-10-23T04:24:31.097Z,8.20
2023-10-23T04:25:33.335Z,8.20
2023-10-23T04:26:38.353Z,8.20
2023-10-23T04:27:40.852Z,8.20
2023-10-23T04:28:43.334Z,8.20
2023-10-23T04:29:46.212Z,8.20
2023-10-23T04:30:48.719Z,8.20
2023-10-23T04:31:51.030Z,8.20
2023-10-23T04:32:53.335Z,8.20
2023-10-23T04:33:56.962Z,8.20
2023-10-23T04:34:59.455Z,8.20
2023-10-23T04:36:02.233Z,8.20
2023-10-23T04:37:04.886Z,8.20
2023-10-23T04:38:07.077Z,8.20
2023-10-23T04:39:09.794Z,8.20
2023-10-23T04:40:13.009Z,8.20
2023-10-23T04:41:15.364Z,8.20
2023-10-23T04:42:17.654Z,8.20
2023-10-23T04:43:20.148Z,8.30
2023-10-23T04:44:22.513Z,8.30
2023-10-23T04:45:24.894Z,8.30
2023-10-23T04:46:27.280Z,8.30
2023-10-23T04:47:29.600Z,8.30
2023-10-23T04:48:32.093Z,8.30
2023-10-23T04:49:35.706Z,8.30
2023-10-23T04:50:38.973Z,8.30
2023-10-23T04:51:41.259Z,8.30
2023-10-23T04:52:44.089Z,8.30
2023-10-23T04:53:46.581Z,8.30
2023-10-23T04:54:50.632Z,8.30
2023-10-23T04:55:54.279Z,8.30
2023-10-23T04:56:56.542Z,8.30
2023-10-23T04:57:58.852Z,8.30
2023-10-23T04:59:01.120Z,8.30
2023-10-23T05:00:03.922Z,8.30
2023-10-23T05:01:06.561Z,8.30
2023-10-23T05:02:08.821Z,8.40
2023-10-23T05:03:11.120Z,8.30
2023-10-23T05:04:13.622Z,8.30
2023-10-23T05:05:17.469Z,8.30
2023-10-23T05:06:25.278Z,8.30
2023-10-23T05:07:27.578Z,8.40
2023-10-23T05:08:29.835Z,8.40
2023-10-23T05:09:32.206Z,8.30
2023-10-23T05:10:34.538Z,8.30
2023-10-23T05:11:36.815Z,8.40
2023-10-23T05:12:39.543Z,8.40
2023-10-23T05:13:41.800Z,8.40
2023-10-23T05:14:44.798Z,8.40
2023-10-23T05:15:47.157Z,8.40
2023-10-23T05:16:49.510Z,8.40
2023-10-23T05:17:51.765Z,8.40
2023-10-23T05:18:54.227Z,8.40
2023-10-23T05:19:56.500Z,8.40
2023-10-23T05:21:00.184Z,8.40
2023-10-23T05:22:02.479Z,8.40
2023-10-23T05:23:04.790Z,8.40
2023-10-23T05:24:08.303Z,8.40
2023-10-23T05:25:11.284Z,8.40
2023-10-23T05:26:13.793Z,8.40
2023-10-23T05:27:17.087Z,8.40
2023-10-23T05:28:19.327Z,8.40
2023-10-23T05:29:21.571Z,8.40
2023-10-23T05:30:23.941Z,8.40
2023-10-23T05:31:26.151Z,8.40
2023-10-23T05:32:28.388Z,8.50
2023-10-23T05:33:30.700Z,8.40
2023-10-23T05:34:33.332Z,8.50
2023-10-23T05:35:35.707Z,8.50
2023-10-23T05:36:39.366Z,8.50
2023-10-23T05:37:42.039Z,8.50
2023-10-23T05:38:44.433Z,8.50
2023-10-23T05:39:46.712Z,8.50
2023-10-23T05:40:49.141Z,8.50
2023-10-23T05:41:51.567Z,8.50
2023-10-23T05:42:53.998Z,8.50
2023-10-23T05:43:56.327Z,8.50
2023-10-23T05:44:58.652Z,8.50
2023-10-23T05:46:03.672Z,8.50
2023-10-23T05:47:06.117Z,8.50
2023-10-23T05:48:08.366Z,8.60
2023-10-23T05:49:11.184Z,8.50
2023-10-23T05:50:13.422Z,8.50
2023-10-23T05:51:15.709Z,8.50
2023-10-23T05:52:19.355Z,8.60
2023-10-23T05:53:21.579Z,8.60
2023-10-23T05:54:24.168Z,8.60
2023-10-23T05:55:26.470Z,8.60
2023-10-23T05:56:28.744Z,8.60
2023-10-23T05:57:31.143Z,8.60
2023-10-23T05:58:33.870Z,8.60
2023-10-23T05:59:36.238Z,8.60
2023-10-23T06:00:38.585Z,8.60
2023-10-23T06:01:41.035Z,8.60
2023-10-23T06:02:43.505Z,8.60
2023-10-23T06:03:45.833Z,8.60
2023-10-23T06:04:48.290Z,8.50
2023-10-23T06:05:50.655Z,8.50
2023-10-23T06:06:53.023Z,8.60
2023-10-23T06:07:56.815Z,8.60
2023-10-23T06:08:59.558Z,8.60
2023-10-23T06:10:01.987Z,8.60
2023-10-23T06:11:07.725Z,8.60
2023-10-23T06:12:14.143Z,8.60
2023-10-23T06:13:16.486Z,8.70
2023-10-23T06:14:18.762Z,8.60
2023-10-23T06:15:22.621Z,8.60
2023-10-23T06:16:25.182Z,8.60
2023-10-23T06:17:27.619Z,8.70
2023-10-23T06:18:30.217Z,8.70
2023-10-23T06:19:36.084Z,8.70
2023-10-23T06:20:38.397Z,8.70
2023-10-23T06:21:43.275Z,8.70
2023-10-23T06:22:45.766Z,8.70
2023-10-23T06:23:49.996Z,8.70
2023-10-23T06:24:52.285Z,8.80
2023-10-23T06:25:57.601Z,8.80
2023-10-23T06:27:00.111Z,8.80
2023-10-23T06:28:04.217Z,8.70
2023-10-23T06:29:06.533Z,8.80
2023-10-23T06:30:09.822Z,8.80
2023-10-23T06:31:13.118Z,8.80
2023-10-23T06:32:16.635Z,8.80
2023-10-23T06:33:20.318Z,8.80
2023-10-23T06:34:22.611Z,8.90
2023-10-23T06:35:25.699Z,8.90
2023-10-23T06:36:27.999Z,8.90
2023-10-23T06:37:32.676Z,8.80
2023-10-23T06:38:34.992Z,8.80
2023-10-23T06:39:38.881Z,8.90
2023-10-23T06:40:41.346Z,8.90
2023-10-23T06:41:43.729Z,8.90
2023-10-23T06:42:46.574Z,8.90
2023-10-23T06:43:49.133Z,8.90
2023-10-23T06:44:51.424Z,8.90
2023-10-23T06:46:58.856Z,9.00
2023-10-23T06:48:01.168Z,9.00
2023-10-23T06:49:03.514Z,9.00
2023-10-23T06:50:06.836Z,9.00
2023-10-23T06:51:09.139Z,9.00
2023-10-23T06:52:11.346Z,9.00
2023-10-23T06:53:13.562Z,9.00
2023-10-23T06:54:16.508Z,9.00
2023-10-23T06:55:20.313Z,9.00
2023-10-23T06:56:22.647Z,9.10
2023-10-23T06:57:24.927Z,9.00
2023-10-23T06:58:27.228Z,9.00
2023-10-23T06:59:29.812Z,9.00
2023-10-23T07:00:31.977Z,9.00
2023-10-23T07:01:42.039Z,9.00
2023-10-23T07:02:49.649Z,9.10
2023-10-23T07:03:52.749Z,9.00
2023-10-23T07:04:56.302Z,9.00
2023-10-23T07:05:58.631Z,9.00
2023-10-23T07:07:02.495Z,9.00
2023-10-23T07:08:08.585Z,9.00
2023-10-23T07:09:10.916Z,9.10
2023-10-23T07:10:13.377Z,9.10
2023-10-23T07:11:20.075Z,9.10
2023-10-23T07:12:22.434Z,9.10
2023-10-23T07:13:24.813Z,9.10
2023-10-23T07:14:27.089Z,9.20
2023-10-23T07:15:29.551Z,9.10
2023-10-23T07:16:31.872Z,9.10
2023-10-23T07:17:35.360Z,9.10
2023-10-23T07:18:37.727Z,9.10
2023-10-23T07:19:40.295Z,9.20
2023-10-23T07:20:52.118Z,9.20
2023-10-23T07:21:54.471Z,9.20
2023-10-23T07:22:56.801Z,9.20
2023-10-23T07:23:59.027Z,9.20
2023-10-23T07:25:01.331Z,9.20
2023-10-23T07:26:08.854Z,9.20
2023-10-23T07:27:18.517Z,9.20
2023-10-23T07:28:20.815Z,9.20
2023-10-23T07:29:23.079Z,9.20
2023-10-23T07:30:25.806Z,9.10
2023-10-23T07:31:28.381Z,9.20
2023-10-23T07:32:30.737Z,9.20
2023-10-23T07:33:33.249Z,9.20
2023-10-23T07:34:36.049Z,9.20
2023-10-23T07:35:52.556Z,9.20
2023-10-23T07:36:58.623Z,9.20
2023-10-23T07:38:01.167Z,9.20
2023-10-23T07:39:04.618Z,9.20
2023-10-23T07:40:08.230Z,9.20
2023-10-23T07:41:10.713Z,9.20
2023-10-23T07:42:14.416Z,9.20
2023-10-23T07:43:16.749Z,9.20
2023-10-23T07:44:19.080Z,9.20
2023-10-23T07:45:21.488Z,9.20
2023-10-23T07:46:23.731Z,9.20
2023-10-23T07:47:27.181Z,9.20
2023-10-23T07:48:29.534Z,9.20
2023-10-23T07:49:31.749Z,9.20
2023-10-23T07:50:35.016Z,9.10
2023-10-23T07:51:37.348Z,9.10
2023-10-23T07:52:39.593Z,9.10
2023-10-23T07:53:41.959Z,9.10
2023-10-23T07:54:44.596Z,9.20
2023-10-23T07:55:46.920Z,9.20
2023-10-23T07:56:49.241Z,9.20
2023-10-23T07:57:52.923Z,9.20
2023-10-23T07:58:55.308Z,9.20
2023-10-23T07:59:57.637Z,9.30
2023-10-23T08:01:06.246Z,9.30
2023-10-23T08:02:09.077Z,9.30
2023-10-23T08:03:11.939Z,9.40
2023-10-23T08:04:14.421Z,9.40
2023-10-23T08:05:16.925Z,9.40
2023-10-23T08:06:19.387Z,9.40
2023-10-23T08:07:21.633Z,9.50
2023-10-23T08:08:23.943Z,9.50
2023-10-23T08:09:26.337Z,9.50
2023-10-23T08:10:28.697Z,9.50
2023-10-23T08:11:30.857Z,9.50
2023-10-23T08:12:33.299Z,9.50
2023-10-23T08:13:40.443Z,9.60
2023-10-23T08:14:42.654Z,9.60
2023-10-23T08:15:45.442Z,9.60
2023-10-23T08:16:48.646Z,9.60
2023-10-23T08:17:54.347Z,9.70
2023-10-23T08:18:58.584Z,9.70
2023-10-23T08:20:01.338Z,9.70
2023-10-23T08:21:09.904Z,9.70
2023-10-23T08:22:12.192Z,9.80
2023-10-23T08:23:15.294Z,9.80
2023-10-23T08:24:17.854Z,9.80
2023-10-23T08:25:20.127Z,9.80
2023-10-23T08:26:22.752Z,9.80
2023-10-23T08:27:26.171Z,9.90
2023-10-23T08:28:32.831Z,9.80
2023-10-23T08:29:45.831Z,9.90
2023-10-23T08:30:48.176Z,9.80
2023-10-23T08:31:50.516Z,9.80
2023-10-23T08:32:53.336Z,9.80
2023-10-23T08:33:55.825Z,9.90
2023-10-23T08:34:58.072Z,9.90
2023-10-23T08:36:00.397Z,9.90
2023-10-23T08:37:03.001Z,9.90
2023-10-23T08:38:05.863Z,9.90
2023-10-23T08:39:09.118Z,9.90
2023-10-23T08:40:12.533Z,9.90
2023-10-23T08:41:15.087Z,10.00
2023-10-23T08:42:17.436Z,10.00
2023-10-23T08:43:19.875Z,10.00
2023-10-23T08:44:22.376Z,10.00
2023-10-23T08:45:26.668Z,10.00
2023-10-23T08:46:33.939Z,10.00
2023-10-23T08:47:36.892Z,10.00
2023-10-23T08:48:39.315Z,10.00
2023-10-23T08:49:42.092Z,9.90
2023-10-23T08:50:46.604Z,9.90
2023-10-23T08:51:52.964Z,9.90
2023-10-23T08:53:01.370Z,9.90
2023-10-23T08:54:11.491Z,9.90
2023-10-23T08:55:15.391Z,9.90
2023-10-23T08:56:20.026Z,9.80
2023-10-23T08:57:25.925Z,9.80
2023-10-23T08:58:34.866Z,9.80
2023-10-23T08:59:43.067Z,9.80
2023-10-23T09:00:47.454Z,9.80
2023-10-23T09:01:50.334Z,9.80
2023-10-23T09:02:53.169Z,9.90
2023-10-23T09:04:03.886Z,9.90
2023-10-23T09:05:08.922Z,9.90
2023-10-23T09:06:11.373Z,10.00
2023-10-23T09:07:13.712Z,10.00
2023-10-23T09:08:17.143Z,10.00
2023-10-23T09:09:20.786Z,10.10
2023-10-23T09:10:23.255Z,10.10
2023-10-23T09:11:39.657Z,10.10
2023-10-23T09:12:42.218Z,10.10
2023-10-23T09:13:44.526Z,10.10
2023-10-23T09:14:46.969Z,10.10
2023-10-23T09:15:58.793Z,10.10
2023-10-23T09:17:02.257Z,10.10
2023-10-23T09:18:05.311Z,10.00
2023-10-23T09:19:07.699Z,10.00
2023-10-23T09:20:28.396Z,10.00
2023-10-23T09:21:33.866Z,10.10
2023-10-23T09:22:38.735Z,10.00
2023-10-23T09:23:51.978Z,10.00
2023-10-23T09:24:58.295Z,10.00
2023-10-23T09:26:01.970Z,10.00
2023-10-23T09:27:05.419Z,10.00
2023-10-23T09:28:12.452Z,10.00
2023-10-23T09:29:14.978Z,10.00
2023-10-23T09:30:23.097Z,10.00
2023-10-23T09:31:27.663Z,10.00
2023-10-23T09:32:30.603Z,10.00
2023-10-23T09:33:34.296Z,9.90
2023-10-23T09:34:42.246Z,9.90
2023-10-23T09:35:44.583Z,10.00
2023-10-23T09:36:49.320Z,10.00
2023-10-23T09:37:51.822Z,10.00
2023-10-23T09:38:59.296Z,10.00
2023-10-23T09:40:06.120Z,10.00
2023-10-23T09:41:10.938Z,10.00
2023-10-23T09:42:13.814Z,10.10
2023-10-23T09:43:17.858Z,10.20
2023-10-23T09:44:26.186Z,10.20
2023-10-23T09:45:31.050Z,10.30
2023-10-23T09:46:35.627Z,10.30
2023-10-23T09:47:41.336Z,10.40
2023-10-23T09:48:45.338Z,10.50
2023-10-23T09:49:51.338Z,10.60
2023-10-23T09:50:56.034Z,10.60
2023-10-23T09:52:01.662Z,10.70
2023-10-23T09:53:07.665Z,10.70
2023-10-23T09:54:21.855Z,10.70
2023-10-23T09:55:29.653Z,10.70
2023-10-23T09:56:35.682Z,10.80
2023-10-23T09:57:40.315Z,10.80
2023-10-23T09:58:48.867Z,10.80
2023-10-23T10:00:00.979Z,10.90
2023-10-23T10:01:06.468Z,10.90
2023-10-23T10:02:11.557Z,11.00
2023-10-23T10:03:17.850Z,11.00
2023-10-23T10:04:30.255Z,11.00
2023-10-23T10:05:39.096Z,10.90
2023-10-23T10:06:47.175Z,10.80
2023-10-23T10:08:00.054Z,10.80
2023-10-23T10:09:13.874Z,10.90
2023-10-23T10:10:19.316Z,10.80
2023-10-23T10:11:43.210Z,10.90
2023-10-23T10:13:05.576Z,10.90
2023-10-23T10:14:22.634Z,10.80
2023-10-23T10:15:28.687Z,10.80
2023-10-23T10:16:38.953Z,10.80
2023-10-23T10:17:49.853Z,10.80
2023-10-23T10:18:58.402Z,10.70
2023-10-23T10:20:23.522Z,10.70
2023-10-23T10:21:31.910Z,10.70
2023-10-23T10:22:48.829Z,10.60
2023-10-23T10:23:54.796Z,10.60
2023-10-23T10:24:58.866Z,10.50
2023-10-23T10:26:06.397Z,10.40
2023-10-23T10:27:09.796Z,10.50
2023-10-23T10:28:13.195Z,10.40
2023-10-23T10:29:15.492Z,10.40
2023-10-23T10:30:44.776Z,10.40
2023-10-23T10:32:11.867Z,10.40
2023-10-23T10:34:25.771Z,10.30
2023-10-23T10:34:57.049Z,10.30
2023-10-23T10:36:01.453Z,10.30
2023-10-23T10:37:11.697Z,10.30
2023-10-23T10:38:27.557Z,10.40
2023-10-23T10:40:04.727Z,10.40
2023-10-23T10:41:18.953Z,10.50
2023-10-23T10:42:23.403Z,10.50
2023-10-23T10:43:27.251Z,10.50
2023-10-23T10:44:29.507Z,10.60
2023-10-23T10:45:31.899Z,10.60
2023-10-23T10:46:35.372Z,10.60
2023-10-23T10:47:40.976Z,10.60
2023-10-23T10:48:46.518Z,10.60
2023-10-23T10:49:49.372Z,10.70
2023-10-23T10:50:52.945Z,10.70
2023-10-23T10:51:56.222Z,10.70
2023-10-23T10:53:03.633Z,6.40
2023-10-23T10:54:11.914Z,10.60
2023-10-23T10:55:14.555Z,10.60
2023-10-23T10:56:17.356Z,10.60
2023-10-23T10:57:21.393Z,10.50
2023-10-23T10:58:25.740Z,10.50
2023-10-23T10:59:28.575Z,10.50
2023-10-23T11:00:33.623Z,10.50
2023-10-23T11:01:36.219Z,10.60
2023-10-23T11:02:39.014Z,10.60
2023-10-23T11:03:43.195Z,10.60
2023-10-23T11:04:48.884Z,10.70
2023-10-23T11:05:51.254Z,10.70
2023-10-23T11:06:54.656Z,10.70
2023-10-23T11:07:57.965Z,10.80
2023-10-23T11:09:00.663Z,10.80
2023-10-23T11:10:04.017Z,10.80
2023-10-23T11:11:06.456Z,10.80
2023-10-23T11:12:08.899Z,10.80
2023-10-23T11:13:15.759Z,10.80
2023-10-23T11:14:18.036Z,10.80
2023-10-23T11:15:20.458Z,10.70
2023-10-23T11:16:22.863Z,10.80
2023-10-23T11:17:28.286Z,10.90
2023-10-23T11:18:30.882Z,11.10
2023-10-23T11:19:33.270Z,11.20
2023-10-23T11:20:39.194Z,11.30
2023-10-23T11:21:45.274Z,11.40
2023-10-23T11:22:50.709Z,11.40
2023-10-23T11:23:56.471Z,11.30
2023-10-23T11:24:58.830Z,11.20
2023-10-23T11:26:01.044Z,11.20
2023-10-23T11:27:05.888Z,11.10
2023-10-23T11:28:08.374Z,11.00
2023-10-23T11:29:10.798Z,11.00
2023-10-23T11:30:13.666Z,10.90
2023-10-23T11:31:16.404Z,10.90
2023-10-23T11:32:19.334Z,10.80
2023-10-23T11:33:21.809Z,10.70
2023-10-23T11:34:24.127Z,10.70
2023-10-23T11:35:33.129Z,10.70
2023-10-23T11:36:36.709Z,10.60
2023-10-23T11:37:40.056Z,10.70
2023-10-23T11:38:42.250Z,10.70
2023-10-23T11:39:44.504Z,10.70
2023-10-23T11:40:47.313Z,10.80
2023-10-23T11:41:55.249Z,10.80
2023-10-23T11:42:59.206Z,10.80
2023-10-23T11:44:02.460Z,10.70
2023-10-23T11:45:05.213Z,10.70
2023-10-23T11:46:08.917Z,10.70
2023-10-23T11:47:11.277Z,10.60
2023-10-23T11:48:14.151Z,10.60
2023-10-23T11:49:20.363Z,10.60
2023-10-23T11:50:23.397Z,10.70
2023-10-23T11:51:26.490Z,10.70
2023-10-23T11:52:30.364Z,10.70
2023-10-23T11:53:34.533Z,10.80
2023-10-23T11:54:37.012Z,10.70
2023-10-23T11:55:39.835Z,10.70
2023-10-23T11:56:45.588Z,10.80
2023-10-23T11:57:52.288Z,10.80
2023-10-23T11:58:56.701Z,10.70
2023-10-23T11:59:59.179Z,10.60
2023-10-23T12:01:01.441Z,10.60
2023-10-23T12:02:03.837Z,10.60
2023-10-23T12:03:06.424Z,10.60
2023-10-23T12:04:08.651Z,10.60
2023-10-23T12:05:13.499Z,10.60
2023-10-23T12:06:16.056Z,10.60
2023-10-23T12:07:18.623Z,10.60
2023-10-23T12:08:23.052Z,10.50
2023-10-23T12:09:25.682Z,10.50
2023-10-23T12:10:30.032Z,10.40
2023-10-23T12:11:33.147Z,10.40
2023-10-23T12:12:40.939Z,10.40
2023-10-23T12:13:44.048Z,10.30
2023-10-23T12:14:47.802Z,10.30
2023-10-23T12:15:50.296Z,10.30
2023-10-23T12:16:52.894Z,10.30
2023-10-23T12:17:55.789Z,10.30
2023-10-23T12:18:58.558Z,10.20
2023-10-23T12:20:01.506Z,10.20
2023-10-23T12:21:06.578Z,10.20
2023-10-23T12:22:09.077Z,10.20
2023-10-23T12:23:11.380Z,10.10
2023-10-23T12:24:15.420Z,10.10
2023-10-23T12:25:18.411Z,10.10
2023-10-23T12:26:20.760Z,10.10
2023-10-23T12:27:23.244Z,10.20
2023-10-23T12:28:25.534Z,10.20
2023-10-23T12:29:28.396Z,10.20
2023-10-23T12:30:30.734Z,10.10
2023-10-23T12:31:33.089Z,10.10
2023-10-23T12:33:15.146Z,10.10
2023-10-23T12:34:19.401Z,10.10
2023-10-23T12:35:22.438Z,10.10
2023-10-23T12:36:28.173Z,10.10
2023-10-23T12:37:30.736Z,10.10
2023-10-23T12:38:33.236Z,10.10
2023-10-23T12:39:37.373Z,10.10
2023-10-23T12:40:40.935Z,10.10
2023-10-23T12:41:43.324Z,10.10
2023-10-23T12:42:45.615Z,10.10
2023-10-23T12:43:49.224Z,10.10
2023-10-23T12:44:55.970Z,10.10
2023-10-23T12:45:58.424Z,10.10
2023-10-23T12:47:00.841Z,10.10
2023-10-23T12:48:03.172Z,10.00
2023-10-23T12:49:05.771Z,10.00
2023-10-23T12:50:08.649Z,10.00
2023-10-23T12:51:10.953Z,10.00
2023-10-23T12:52:13.358Z,10.00
2023-10-23T12:53:15.799Z,9.90
2023-10-23T12:54:18.204Z,9.90
2023-10-23T12:55:21.884Z,9.90
2023-10-23T12:56:24.248Z,9.90
2023-10-23T12:57:26.585Z,9.90
2023-10-23T12:58:29.059Z,9.90
2023-10-23T12:59:31.575Z,9.90
2023-10-23T13:00:34.751Z,9.90
2023-10-23T13:01:38.693Z,9.90
2023-10-23T13:02:41.047Z,9.90
2023-10-23T13:03:43.659Z,9.90
2023-10-23T13:04:49.496Z,9.90
2023-10-23T13:05:55.334Z,9.90
2023-10-23T13:07:01.428Z,9.90
2023-10-23T13:08:04.636Z,9.80
2023-10-23T13:09:07.236Z,9.80
2023-10-23T13:10:10.489Z,9.80
2023-10-23T13:11:14.754Z,9.80
2023-10-23T13:12:18.478Z,9.80
2023-10-23T13:13:21.255Z,9.80
2023-10-23T13:14:24.195Z,9.80
2023-10-23T13:15:27.470Z,9.80
2023-10-23T13:16:30.069Z,9.80
2023-10-23T13:17:32.986Z,9.80
2023-10-23T13:18:35.708Z,9.80
2023-10-23T13:19:56.280Z,9.80
2023-10-23T13:21:31.534Z,9.80
2023-10-23T13:22:23.861Z,9.80
2023-10-23T13:23:26.200Z,9.70
2023-10-23T13:24:28.621Z,9.80
2023-10-23T13:25:31.050Z,9.80
2023-10-23T13:26:34.754Z,9.80
2023-10-23T13:27:37.037Z,9.80
2023-10-23T13:28:39.212Z,9.80
2023-10-23T13:29:41.512Z,9.80
2023-10-23T13:30:44.574Z,9.80
2023-10-23T13:31:49.681Z,9.80
2023-10-23T13:32:52.621Z,9.80
2023-10-23T13:33:54.961Z,9.80
2023-10-23T13:34:57.561Z,9.90
2023-10-23T13:36:00.531Z,9.90
2023-10-23T13:37:03.115Z,9.90
2023-10-23T13:38:05.299Z,9.90
2023-10-23T13:39:09.431Z,9.90
2023-10-23T13:40:12.528Z,9.90
2023-10-23T13:41:14.847Z,9.90
2023-10-23T13:42:18.418Z,9.90
2023-10-23T13:43:20.667Z,9.90
2023-10-23T13:44:22.938Z,10.00
2023-10-23T13:45:25.231Z,10.00
2023-10-23T13:46:27.966Z,10.00
2023-10-23T13:47:30.350Z,10.10
2023-10-23T13:48:32.705Z,10.10
2023-10-23T13:49:34.972Z,10.10
2023-10-23T13:50:37.377Z,10.10
2023-10-23T13:51:39.605Z,10.00
2023-10-23T13:52:42.684Z,10.10
2023-10-23T13:53:45.730Z,10.10
2023-10-23T13:54:49.167Z,10.00
2023-10-23T13:55:52.748Z,10.00
2023-10-23T13:56:55.012Z,10.10
2023-10-23T13:57:58.647Z,10.00
2023-10-23T13:59:00.852Z,10.00
2023-10-23T14:00:03.257Z,10.00
2023-10-23T14:01:05.546Z,9.90
2023-10-23T14:02:08.017Z,9.90